createdAt,value
2023-02-24T00:00:32.692Z,20.03
2023-02-24T00:01:37.671Z,20.43
2023-02-24T00:02:39.335Z,20.57
2023-02-24T00:03:44.870Z,20.53
2023-02-24T00:04:51.586Z,20.83
2023-02-24T00:05:52.961Z,21.17
2023-02-24T00:06:54.409Z,20.17
2023-02-24T00:07:55.723Z,21.53
2023-02-24T00:08:57.023Z,21.57
2023-02-24T00:09:58.316Z,22.07
2023-02-24T00:10:59.669Z,37.40
2023-02-24T00:12:02.536Z,55.23
2023-02-24T00:13:04.016Z,45.40
2023-02-24T00:14:06.184Z,36.63
2023-02-24T00:15:07.841Z,39.13
2023-02-24T00:16:09.302Z,36.70
2023-02-24T00:17:12.213Z,41.90
2023-02-24T00:18:13.597Z,29.37
2023-02-24T00:19:16.367Z,43.90
2023-02-24T00:20:19.050Z,26.27
2023-02-24T00:21:20.694Z,23.70
2023-02-24T00:22:22.358Z,23.40
2023-02-24T00:23:23.742Z,26.60
2023-02-24T00:24:25.493Z,25.70
2023-02-24T00:25:26.842Z,24.63
2023-02-24T00:26:29.830Z,25.37
2023-02-24T00:27:32.288Z,24.73
2023-02-24T00:28:34.339Z,25.60
2023-02-24T00:29:37.576Z,29.10
2023-02-24T00:30:39.154Z,32.97
2023-02-24T00:31:42.757Z,32.73
2023-02-24T00:32:44.211Z,40.03
2023-02-24T00:33:46.412Z,37.23
2023-02-24T00:34:47.942Z,34.00
2023-02-24T00:35:49.471Z,32.90
2023-02-24T00:36:51.478Z,33.20
2023-02-24T00:37:54.307Z,32.53
2023-02-24T00:39:10.727Z,27.90
2023-02-24T00:40:15.447Z,28.30
2023-02-24T00:41:19.434Z,28.60
2023-02-24T00:42:22.760Z,31.30
2023-02-24T00:43:24.096Z,27.00
2023-02-24T00:44:26.001Z,26.20
2023-02-24T00:45:30.695Z,25.10
2023-02-24T00:46:35.697Z,26.50
2023-02-24T00:47:38.907Z,25.13
2023-02-24T00:48:40.551Z,28.27
2023-02-24T00:49:43.569Z,28.47
2023-02-24T00:50:44.893Z,26.90
2023-02-24T00:51:48.511Z,25.37
2023-02-24T00:52:50.932Z,25.27
2023-02-24T00:53:56.025Z,25.07
2023-02-24T00:54:58.804Z,24.77
2023-02-24T00:56:06.966Z,25.30
2023-02-24T00:57:08.380Z,25.57
2023-02-24T00:58:09.687Z,23.90
2023-02-24T00:59:11.725Z,25.23
2023-02-24T01:00:15.029Z,25.90
2023-02-24T01:01:18.226Z,25.70
2023-02-24T01:02:20.334Z,25.53
2023-02-24T01:03:21.834Z,25.67
2023-02-24T01:04:23.168Z,24.57
2023-02-24T01:05:27.825Z,25.30
2023-02-24T01:06:29.413Z,23.93
2023-02-24T01:07:31.114Z,24.50
2023-02-24T01:08:36.324Z,25.57
2023-02-24T01:09:38.766Z,25.00
2023-02-24T01:10:40.120Z,24.60
2023-02-24T01:12:00.913Z,25.57
2023-02-24T01:13:02.832Z,24.23
2023-02-24T01:14:04.948Z,25.63
2023-02-24T01:15:08.900Z,25.43
2023-02-24T01:16:13.157Z,25.60
2023-02-24T01:17:15.237Z,24.90
2023-02-24T01:18:18.301Z,25.10
2023-02-24T01:19:20.843Z,24.33
2023-02-24T01:20:22.162Z,25.53
2023-02-24T01:21:24.032Z,24.40
2023-02-24T01:22:26.517Z,24.70
2023-02-24T01:23:27.876Z,25.47
2023-02-24T01:24:31.468Z,26.27
2023-02-24T01:25:34.470Z,25.17
2023-02-24T01:26:36.283Z,23.87
2023-02-24T01:27:37.638Z,26.53
2023-02-24T01:28:38.997Z,24.40
2023-02-24T01:29:40.514Z,25.13
2023-02-24T01:30:43.823Z,24.40
2023-02-24T01:31:47.300Z,25.77
2023-02-24T01:32:50.978Z,25.97
2023-02-24T01:33:52.535Z,25.33
2023-02-24T01:34:53.891Z,26.03
2023-02-24T01:35:55.549Z,25.07
2023-02-24T01:36:56.915Z,25.37
2023-02-24T01:37:59.109Z,25.73
2023-02-24T01:39:04.210Z,25.07
2023-02-24T01:40:18.797Z,25.47
2023-02-24T01:41:27.550Z,24.43
2023-02-24T01:42:29.034Z,24.70
2023-02-24T01:43:30.893Z,24.63
2023-02-24T01:44:32.610Z,24.40
2023-02-24T01:45:36.661Z,26.47
2023-02-24T01:46:39.067Z,24.63
2023-02-24T01:47:40.894Z,26.57
2023-02-24T01:48:42.640Z,25.00
2023-02-24T01:49:45.105Z,25.30
2023-02-24T01:50:46.519Z,25.47
2023-02-24T01:51:58.078Z,26.60
2023-02-24T01:53:01.295Z,25.43
2023-02-24T01:54:02.971Z,25.40
2023-02-24T01:55:07.675Z,25.03
2023-02-24T01:56:13.681Z,25.70
2023-02-24T01:57:17.245Z,26.00
2023-02-24T01:58:28.470Z,26.77
2023-02-24T01:59:30.137Z,24.37
2023-02-24T02:00:33.672Z,25.50
2023-02-24T02:01:40.656Z,24.63
2023-02-24T02:02:44.767Z,25.37
2023-02-24T02:03:46.969Z,26.17
2023-02-24T02:04:54.449Z,24.33
2023-02-24T02:06:00.980Z,24.80
2023-02-24T02:07:02.383Z,23.30
2023-02-24T02:08:08.955Z,25.53
2023-02-24T02:09:15.206Z,25.13
2023-02-24T02:10:18.430Z,25.87
2023-02-24T02:11:23.395Z,24.83
2023-02-24T02:12:24.887Z,25.27
2023-02-24T02:13:26.861Z,25.90
2023-02-24T02:14:29.631Z,25.53
2023-02-24T02:15:32.376Z,24.90
2023-02-24T02:16:49.253Z,25.53
2023-02-24T02:17:59.412Z,25.47
2023-02-24T02:19:16.000Z,26.30
2023-02-24T02:20:37.008Z,24.93
2023-02-24T02:21:58.377Z,25.80
2023-02-24T02:23:27.853Z,26.87
2023-02-24T02:24:48.352Z,25.00
2023-02-24T02:26:08.903Z,25.30
2023-02-24T02:27:10.165Z,24.90
2023-02-24T02:28:31.649Z,25.67
2023-02-24T02:29:33.767Z,25.70
2023-02-24T02:30:43.980Z,25.20
2023-02-24T02:32:06.041Z,24.30
2023-02-24T02:33:46.755Z,24.20
2023-02-24T02:34:50.199Z,24.80
2023-02-24T02:36:00.846Z,25.20
2023-02-24T02:37:11.813Z,24.33
2023-02-24T02:38:16.046Z,25.30
2023-02-24T02:39:35.763Z,24.27
2023-02-24T02:40:38.978Z,23.83
2023-02-24T02:41:40.421Z,23.43
2023-02-24T02:42:45.122Z,24.40
2023-02-24T02:43:50.317Z,24.73
2023-02-24T02:45:05.489Z,25.33
2023-02-24T02:46:17.638Z,24.30
2023-02-24T02:47:23.284Z,24.60
2023-02-24T02:48:47.433Z,24.47
2023-02-24T02:49:54.677Z,24.67
2023-02-24T02:51:04.138Z,24.37
2023-02-24T02:52:10.368Z,24.37
2023-02-24T02:53:15.828Z,24.23
2023-02-24T02:54:18.060Z,23.63
2023-02-24T02:55:40.881Z,25.37
2023-02-24T02:56:44.624Z,24.77
2023-02-24T02:57:47.646Z,24.30
2023-02-24T02:58:53.248Z,24.13
2023-02-24T02:59:57.708Z,25.97
2023-02-24T03:01:03.307Z,24.97
2023-02-24T03:02:14.679Z,25.47
2023-02-24T03:03:18.209Z,26.60
2023-02-24T03:04:23.006Z,28.13
2023-02-24T03:05:29.644Z,27.73
2023-02-24T03:06:33.812Z,26.67
2023-02-24T03:07:37.562Z,26.50
2023-02-24T03:08:40.177Z,25.57
2023-02-24T03:09:44.148Z,25.30
2023-02-24T03:10:50.882Z,25.70
2023-02-24T03:11:54.264Z,26.60
2023-02-24T03:12:57.372Z,26.23
2023-02-24T03:14:02.704Z,25.60
2023-02-24T03:15:05.770Z,26.77
2023-02-24T03:16:08.526Z,24.83
2023-02-24T03:17:14.829Z,26.13
2023-02-24T03:18:20.180Z,26.13
2023-02-24T03:19:26.094Z,26.60
2023-02-24T03:20:32.691Z,26.77
2023-02-24T03:21:38.639Z,26.27
2023-02-24T03:22:42.764Z,25.00
2023-02-24T03:23:50.121Z,26.50
2023-02-24T03:24:52.784Z,26.97
2023-02-24T03:26:01.156Z,26.13
2023-02-24T03:27:20.628Z,26.23
2023-02-24T03:28:24.104Z,27.47
2023-02-24T03:29:45.836Z,26.60
2023-02-24T03:30:53.065Z,26.13
2023-02-24T03:31:59.484Z,25.53
2023-02-24T03:33:08.315Z,25.77
2023-02-24T03:34:13.159Z,25.97
2023-02-24T03:35:21.518Z,26.70
2023-02-24T03:36:23.171Z,27.30
2023-02-24T03:37:27.828Z,26.53
2023-02-24T03:38:31.172Z,26.43
2023-02-24T03:39:32.742Z,27.10
2023-02-24T03:40:44.132Z,26.77
2023-02-24T03:41:56.188Z,27.23
2023-02-24T03:43:05.306Z,26.97
2023-02-24T03:44:09.532Z,27.10
2023-02-24T03:45:11.290Z,26.40
2023-02-24T03:46:14.971Z,26.70
2023-02-24T03:47:17.456Z,25.73
2023-02-24T03:48:18.939Z,26.90
2023-02-24T03:49:20.798Z,26.60
2023-02-24T03:50:26.814Z,26.33
2023-02-24T03:51:32.441Z,27.03
2023-02-24T03:52:52.609Z,25.53
2023-02-24T03:53:54.437Z,25.93
2023-02-24T03:55:06.777Z,26.53
2023-02-24T03:56:27.387Z,26.90
2023-02-24T03:57:54.639Z,25.53
2023-02-24T03:59:02.799Z,27.00
2023-02-24T04:00:26.018Z,24.97
2023-02-24T04:01:34.857Z,25.87
2023-02-24T04:02:36.713Z,26.27
2023-02-24T04:03:42.012Z,26.73
2023-02-24T04:04:59.447Z,26.07
2023-02-24T04:06:11.577Z,25.70
2023-02-24T04:07:35.982Z,26.10
2023-02-24T04:08:48.653Z,26.47
2023-02-24T04:09:52.518Z,25.30
2023-02-24T04:11:00.434Z,26.00
2023-02-24T04:12:09.296Z,24.87
2023-02-24T04:13:13.033Z,24.37
2023-02-24T04:14:24.721Z,27.37
2023-02-24T04:15:29.516Z,26.07
2023-02-24T04:16:39.920Z,25.27
2023-02-24T04:17:45.784Z,24.43
2023-02-24T04:18:50.329Z,24.47
2023-02-24T04:19:54.691Z,26.20
2023-02-24T04:20:59.629Z,25.77
2023-02-24T04:22:03.884Z,25.23
2023-02-24T04:23:11.365Z,25.33
2023-02-24T04:24:15.880Z,25.90
2023-02-24T04:25:24.335Z,25.23
2023-02-24T04:26:26.687Z,23.77
2023-02-24T04:27:30.311Z,25.17
2023-02-24T04:28:45.102Z,24.10
2023-02-24T04:29:49.719Z,24.10
2023-02-24T04:30:54.520Z,25.57
2023-02-24T04:32:02.362Z,25.27
2023-02-24T04:33:04.024Z,25.53
2023-02-24T04:34:09.265Z,25.03
2023-02-24T04:35:14.007Z,24.50
2023-02-24T04:36:18.871Z,24.87
2023-02-24T04:37:23.522Z,24.77
2023-02-24T04:38:25.383Z,25.07
2023-02-24T04:39:28.457Z,25.50
2023-02-24T04:40:32.344Z,24.30
2023-02-24T04:41:33.656Z,25.60
2023-02-24T04:42:34.953Z,24.23
2023-02-24T04:43:36.280Z,24.33
2023-02-24T04:44:37.616Z,24.70
2023-02-24T04:45:41.977Z,25.63
2023-02-24T04:46:44.376Z,24.40
2023-02-24T04:47:49.320Z,24.30
2023-02-24T04:48:50.977Z,24.97
2023-02-24T04:49:54.970Z,24.50
2023-02-24T04:50:56.300Z,26.07
2023-02-24T04:51:57.876Z,23.90
2023-02-24T04:53:00.886Z,24.57
2023-02-24T04:54:03.699Z,24.80
2023-02-24T04:55:10.061Z,25.57
2023-02-24T04:56:19.292Z,25.63
2023-02-24T04:57:30.906Z,24.73
2023-02-24T04:58:36.818Z,24.53
2023-02-24T04:59:38.163Z,25.37
2023-02-24T05:00:42.892Z,23.33
2023-02-24T05:01:44.839Z,25.50
2023-02-24T05:02:47.884Z,24.90
2023-02-24T05:03:52.003Z,25.90
2023-02-24T05:04:53.345Z,26.03
2023-02-24T05:05:59.986Z,25.60
2023-02-24T05:07:03.031Z,25.97
2023-02-24T05:08:08.987Z,25.03
2023-02-24T05:09:16.922Z,25.90
2023-02-24T05:10:20.346Z,24.97
2023-02-24T05:11:22.060Z,24.90
2023-02-24T05:12:23.617Z,24.97
2023-02-24T05:13:27.714Z,25.30
2023-02-24T05:14:29.061Z,25.23
2023-02-24T05:15:33.504Z,24.93
2023-02-24T05:16:35.057Z,25.57
2023-02-24T05:17:36.660Z,24.90
2023-02-24T05:18:37.980Z,24.60
2023-02-24T05:19:57.983Z,25.97
2023-02-24T05:21:22.579Z,24.77
2023-02-24T05:22:24.122Z,24.27
2023-02-24T05:23:26.810Z,24.67
2023-02-24T05:24:33.140Z,26.00
2023-02-24T05:25:37.786Z,25.60
2023-02-24T05:26:41.759Z,26.80
2023-02-24T05:27:43.218Z,25.60
2023-02-24T05:28:49.031Z,25.03
2023-02-24T05:29:50.370Z,25.37
2023-02-24T05:30:54.713Z,26.00
2023-02-24T05:31:59.821Z,26.00
2023-02-24T05:33:01.389Z,24.50
2023-02-24T05:34:08.427Z,24.87
2023-02-24T05:35:10.725Z,24.77
2023-02-24T05:36:16.204Z,25.20
2023-02-24T05:37:18.392Z,25.10
2023-02-24T05:38:19.720Z,25.17
2023-02-24T05:39:21.499Z,25.70
2023-02-24T05:40:24.940Z,25.23
2023-02-24T05:41:35.618Z,25.50
2023-02-24T05:42:36.945Z,26.80
2023-02-24T05:43:39.253Z,24.73
2023-02-24T05:44:40.602Z,26.53
2023-02-24T05:45:43.217Z,25.50
2023-02-24T05:46:46.003Z,25.77
2023-02-24T05:47:47.404Z,26.37
2023-02-24T05:48:51.829Z,25.90
2023-02-24T05:49:56.712Z,25.13
2023-02-24T05:50:59.589Z,23.83
2023-02-24T05:52:07.213Z,24.90
2023-02-24T05:53:09.434Z,24.37
2023-02-24T05:54:13.456Z,24.97
2023-02-24T05:55:14.886Z,25.90
2023-02-24T05:56:19.046Z,25.73
2023-02-24T05:57:32.768Z,26.37
2023-02-24T05:58:34.146Z,25.27
2023-02-24T05:59:35.503Z,25.37
2023-02-24T06:00:39.294Z,25.40
2023-02-24T06:01:47.375Z,24.47
2023-02-24T06:02:52.604Z,26.30
2023-02-24T06:03:54.356Z,27.00
2023-02-24T06:04:55.872Z,26.10
2023-02-24T06:06:05.456Z,25.67
2023-02-24T06:07:13.505Z,26.03
2023-02-24T06:08:14.853Z,25.13
2023-02-24T06:09:16.176Z,25.23
2023-02-24T06:10:17.715Z,24.67
2023-02-24T06:11:20.671Z,26.70
2023-02-24T06:12:23.792Z,25.93
2023-02-24T06:13:26.089Z,26.27
2023-02-24T06:14:28.347Z,25.10
2023-02-24T06:15:31.502Z,25.77
2023-02-24T06:16:35.850Z,25.70
2023-02-24T06:17:37.821Z,25.23
2023-02-24T06:18:40.785Z,24.50
2023-02-24T06:19:43.394Z,24.53
2023-02-24T06:20:51.046Z,24.43
2023-02-24T06:21:52.657Z,25.30
2023-02-24T06:22:57.292Z,23.97
2023-02-24T06:23:58.830Z,24.47
2023-02-24T06:25:00.131Z,25.17
2023-02-24T06:26:02.154Z,23.47
2023-02-24T06:27:09.662Z,25.30
2023-02-24T06:28:11.486Z,25.40
2023-02-24T06:29:17.814Z,24.33
2023-02-24T06:30:19.312Z,24.50
2023-02-24T06:31:21.597Z,23.77
2023-02-24T06:32:24.810Z,26.07
2023-02-24T06:33:26.981Z,24.73
2023-02-24T06:34:28.332Z,24.60
2023-02-24T06:35:29.705Z,26.27
2023-02-24T06:36:31.724Z,24.30
2023-02-24T06:37:33.054Z,25.53
2023-02-24T06:38:35.257Z,24.30
2023-02-24T06:39:37.055Z,26.07
2023-02-24T06:40:38.398Z,24.57
2023-02-24T06:41:39.714Z,25.90
2023-02-24T06:42:44.550Z,25.43
2023-02-24T06:43:47.016Z,24.27
2023-02-24T06:44:48.903Z,24.90
2023-02-24T06:45:50.301Z,23.87
2023-02-24T06:46:54.036Z,24.80
2023-02-24T06:47:55.711Z,25.03
2023-02-24T06:48:58.072Z,24.43
2023-02-24T06:49:59.429Z,24.87
2023-02-24T06:51:05.258Z,25.00
2023-02-24T06:52:06.633Z,25.50
2023-02-24T06:53:16.771Z,25.00
2023-02-24T06:54:19.086Z,25.80
2023-02-24T06:55:26.441Z,25.50
2023-02-24T06:56:28.134Z,25.03
2023-02-24T06:57:32.712Z,24.10
2023-02-24T06:58:34.107Z,25.67
2023-02-24T06:59:35.443Z,23.27
2023-02-24T07:00:37.169Z,24.43
2023-02-24T07:01:45.261Z,25.47
2023-02-24T07:02:48.217Z,25.70
2023-02-24T07:04:08.034Z,24.30
2023-02-24T07:05:14.462Z,25.00
2023-02-24T07:06:24.625Z,24.87
2023-02-24T07:07:26.475Z,23.47
2023-02-24T07:08:28.221Z,24.00
2023-02-24T07:09:30.562Z,25.03
2023-02-24T07:10:32.994Z,25.13
2023-02-24T07:11:35.162Z,23.87
2023-02-24T07:12:36.538Z,25.30
2023-02-24T07:13:37.853Z,24.03
2023-02-24T07:14:40.370Z,26.43
2023-02-24T07:15:48.979Z,25.53
2023-02-24T07:16:54.208Z,25.43
2023-02-24T07:17:55.860Z,24.27
2023-02-24T07:19:02.871Z,24.90
2023-02-24T07:20:11.761Z,25.50
2023-02-24T07:21:13.128Z,24.90
2023-02-24T07:22:16.939Z,25.93
2023-02-24T07:23:33.318Z,25.30
2023-02-24T07:26:31.175Z,24.97
2023-02-24T07:27:32.774Z,25.60
2023-02-24T07:28:34.449Z,25.87
2023-02-24T07:29:35.901Z,25.73
2023-02-24T07:30:38.582Z,25.57
2023-02-24T07:31:40.150Z,26.27
2023-02-24T07:32:42.482Z,24.83
2023-02-24T07:33:45.098Z,25.43
2023-02-24T07:34:46.427Z,25.67
2023-02-24T07:35:58.552Z,25.70
2023-02-24T07:37:02.588Z,24.53
2023-02-24T07:38:05.493Z,24.77
2023-02-24T07:39:09.869Z,25.80
2023-02-24T07:40:17.193Z,25.30
2023-02-24T07:41:22.499Z,24.90
2023-02-24T07:42:24.161Z,24.07
2023-02-24T07:43:29.075Z,25.53
2023-02-24T07:44:30.484Z,25.77
2023-02-24T07:45:31.848Z,24.67
2023-02-24T07:46:33.676Z,25.53
2023-02-24T07:47:35.761Z,25.87
2023-02-24T07:48:37.443Z,23.77
2023-02-24T07:49:39.730Z,26.40
2023-02-24T07:50:41.957Z,25.70
2023-02-24T07:51:43.443Z,26.70
2023-02-24T07:52:47.967Z,26.10
2023-02-24T07:53:58.938Z,25.33
2023-02-24T07:55:00.350Z,25.10
2023-02-24T07:56:13.643Z,24.23
2023-02-24T07:57:15.073Z,24.63
2023-02-24T07:58:18.462Z,24.87
2023-02-24T07:59:21.944Z,24.33
2023-02-24T08:00:28.258Z,26.70
2023-02-24T08:01:38.676Z,25.87
2023-02-24T08:02:40.270Z,26.23
2023-02-24T08:03:41.838Z,28.23
2023-02-24T08:04:50.623Z,25.97
2023-02-24T08:05:54.594Z,26.30
2023-02-24T08:06:56.270Z,27.93
2023-02-24T08:07:57.588Z,29.33
2023-02-24T08:08:59.737Z,31.70
2023-02-24T08:10:13.698Z,28.83
2023-02-24T08:11:17.578Z,27.80
2023-02-24T08:12:22.092Z,26.37
2023-02-24T08:13:23.607Z,27.57
2023-02-24T08:14:32.913Z,29.03
2023-02-24T08:15:34.696Z,29.17
2023-02-24T08:16:42.391Z,28.53
2023-02-24T08:17:44.657Z,33.63
2023-02-24T08:18:49.029Z,34.20
2023-02-24T08:20:08.386Z,28.87
2023-02-24T08:21:09.898Z,29.90
2023-02-24T08:22:21.017Z,31.80
2023-02-24T08:23:23.579Z,33.03
2023-02-24T08:24:29.940Z,29.87
2023-02-24T08:25:38.231Z,31.80
2023-02-24T08:26:44.758Z,33.03
2023-02-24T08:28:05.156Z,29.83
2023-02-24T08:29:08.469Z,31.60
2023-02-24T08:30:21.159Z,29.33
2023-02-24T08:31:22.960Z,30.00
2023-02-24T08:32:26.091Z,27.23
2023-02-24T08:33:30.157Z,26.83
2023-02-24T08:34:31.970Z,27.93
2023-02-24T08:35:35.865Z,27.90
2023-02-24T08:36:37.408Z,26.57
2023-02-24T08:37:46.943Z,26.50
2023-02-24T08:38:52.258Z,28.73
2023-02-24T08:39:57.817Z,26.97
2023-02-24T08:41:04.848Z,26.60
2023-02-24T08:42:07.540Z,26.90
2023-02-24T08:43:16.408Z,27.77
2023-02-24T08:44:21.497Z,25.83
2023-02-24T08:45:23.165Z,25.97
2023-02-24T08:46:32.773Z,25.37
2023-02-24T08:47:36.173Z,25.90
2023-02-24T08:48:38.538Z,25.83
2023-02-24T08:49:40.680Z,25.90
2023-02-24T08:50:45.551Z,25.80
2023-02-24T08:51:48.399Z,24.73
2023-02-24T08:52:50.731Z,24.93
2023-02-24T08:53:53.338Z,25.27
2023-02-24T08:55:01.722Z,25.17
2023-02-24T08:56:12.646Z,25.47
2023-02-24T08:57:15.352Z,25.40
2023-02-24T08:58:27.357Z,26.30
2023-02-24T08:59:38.644Z,26.17
2023-02-24T09:00:49.430Z,27.07
2023-02-24T09:02:04.235Z,25.17
2023-02-24T09:03:11.144Z,25.60
2023-02-24T09:04:19.921Z,24.93
2023-02-24T09:05:26.500Z,25.83
2023-02-24T09:06:40.805Z,26.63
2023-02-24T09:07:42.451Z,27.00
2023-02-24T09:08:45.054Z,27.67
2023-02-24T09:09:46.834Z,25.70
2023-02-24T09:10:48.230Z,27.60
2023-02-24T09:11:57.209Z,26.27
2023-02-24T09:13:02.012Z,27.03
2023-02-24T09:14:04.734Z,26.47
2023-02-24T09:15:10.657Z,25.33
2023-02-24T09:16:16.494Z,25.80
2023-02-24T09:17:20.597Z,27.33
2023-02-24T09:18:30.436Z,26.73
2023-02-24T09:19:51.710Z,27.47
2023-02-24T09:21:11.911Z,26.33
2023-02-24T09:22:37.869Z,27.77
2023-02-24T09:23:45.933Z,27.20
2023-02-24T09:24:50.895Z,27.03
2023-02-24T09:25:54.250Z,26.23
2023-02-24T09:26:59.233Z,26.30
2023-02-24T09:28:08.810Z,26.40
2023-02-24T09:29:32.169Z,27.77
2023-02-24T09:30:50.965Z,27.53
2023-02-24T09:32:04.539Z,27.27
2023-02-24T09:33:19.065Z,27.00
2023-02-24T09:34:30.389Z,28.40
2023-02-24T09:35:46.081Z,27.30
2023-02-24T09:37:03.518Z,27.00
2023-02-24T09:38:05.778Z,27.70
2023-02-24T09:39:07.118Z,25.80
2023-02-24T09:40:21.469Z,27.10
2023-02-24T09:41:32.455Z,27.10
2023-02-24T09:42:48.984Z,27.00
2023-02-24T09:43:59.761Z,27.73
2023-02-24T09:45:12.604Z,28.10
2023-02-24T09:46:23.922Z,26.73
2023-02-24T09:48:01.814Z,27.53
2023-02-24T09:49:11.692Z,27.13
2023-02-24T09:50:14.093Z,27.77
2023-02-24T09:51:26.991Z,28.33
2023-02-24T09:52:40.872Z,28.47
2023-02-24T09:53:59.530Z,26.67
2023-02-24T09:55:25.048Z,27.10
2023-02-24T09:56:45.113Z,29.47
2023-02-24T09:58:09.005Z,27.83
2023-02-24T09:59:36.569Z,27.33
2023-02-24T10:00:46.183Z,26.83
2023-02-24T10:01:47.578Z,26.60
2023-02-24T10:02:59.975Z,29.37
2023-02-24T10:04:22.813Z,27.83
2023-02-24T10:05:38.284Z,26.60
2023-02-24T10:06:41.433Z,27.87
2023-02-24T10:07:46.382Z,27.20
2023-02-24T10:08:50.208Z,27.63
2023-02-24T10:10:31.645Z,28.50
2023-02-24T10:11:35.380Z,28.43
2023-02-24T10:12:40.610Z,27.07
2023-02-24T10:13:52.028Z,29.07
2023-02-24T10:15:16.106Z,28.07
2023-02-24T10:16:26.673Z,27.30
2023-02-24T10:17:39.284Z,29.17
2023-02-24T10:19:00.869Z,28.77
2023-02-24T10:20:13.882Z,26.83
2023-02-24T10:21:48.235Z,28.93
2023-02-24T10:22:54.193Z,28.40
2023-02-24T10:24:14.330Z,29.53
2023-02-24T10:25:25.316Z,28.10
2023-02-24T10:26:51.300Z,27.30
2023-02-24T10:28:20.069Z,27.10
2023-02-24T10:29:32.408Z,27.47
2023-02-24T10:30:54.775Z,28.07
2023-02-24T10:32:06.758Z,27.93
2023-02-24T10:33:20.810Z,26.47
2023-02-24T10:34:26.433Z,27.17
2023-02-24T10:35:33.538Z,27.07
2023-02-24T10:36:35.888Z,26.80
2023-02-24T10:37:45.583Z,26.97
2023-02-24T10:38:47.027Z,25.97
2023-02-24T10:39:57.353Z,27.13
2023-02-24T10:41:04.327Z,26.17
2023-02-24T10:42:20.373Z,26.50
2023-02-24T10:43:30.162Z,26.40
2023-02-24T10:44:38.896Z,26.20
2023-02-24T10:45:45.576Z,26.80
2023-02-24T10:46:47.456Z,26.70
2023-02-24T10:47:56.554Z,27.37
2023-02-24T10:49:09.375Z,25.77
2023-02-24T10:50:26.698Z,26.37
2023-02-24T10:51:41.615Z,26.80
2023-02-24T10:52:50.846Z,26.07
2023-02-24T10:54:14.155Z,25.27
2023-02-24T10:55:40.068Z,22.87
2023-02-24T10:56:44.297Z,20.73
2023-02-24T10:57:58.917Z,19.93
2023-02-24T10:59:40.822Z,19.83
2023-02-24T11:01:06.081Z,21.07
2023-02-24T11:02:29.811Z,23.80
2023-02-24T11:03:49.581Z,24.50
2023-02-24T11:04:59.748Z,24.00
2023-02-24T11:06:05.301Z,23.73
2023-02-24T11:07:24.317Z,22.73
2023-02-24T11:08:54.438Z,24.23
2023-02-24T11:10:11.302Z,24.50
2023-02-24T11:11:25.839Z,25.33
2023-02-24T11:12:47.174Z,23.83
2023-02-24T11:14:18.009Z,24.20
2023-02-24T11:15:44.471Z,23.77
2023-02-24T11:17:19.869Z,24.03
2023-02-24T11:18:28.097Z,23.77
2023-02-24T11:19:33.538Z,23.63
2023-02-24T11:20:49.274Z,26.00
2023-02-24T11:21:51.250Z,24.13
2023-02-24T11:22:55.851Z,25.63
2023-02-24T11:23:59.538Z,25.40
2023-02-24T11:25:05.360Z,24.80
2023-02-24T11:26:11.886Z,25.13
2023-02-24T11:27:16.804Z,25.80
2023-02-24T11:28:30.647Z,23.03
2023-02-24T11:29:52.323Z,23.10
2023-02-24T11:31:04.188Z,22.17
2023-02-24T11:32:15.661Z,22.70
2023-02-24T11:33:42.388Z,23.47
2023-02-24T11:34:49.934Z,22.67
2023-02-24T11:35:59.322Z,22.63
2023-02-24T11:37:23.678Z,20.87
2023-02-24T11:38:31.524Z,21.70
2023-02-24T11:39:55.415Z,21.57
2023-02-24T11:41:09.466Z,21.40
2023-02-24T11:42:15.551Z,21.03
2023-02-24T11:43:19.365Z,22.30
2023-02-24T11:44:23.438Z,22.83
2023-02-24T11:45:34.014Z,21.37
2023-02-24T11:47:01.884Z,22.20
2023-02-24T11:48:14.926Z,22.33
2023-02-24T11:49:36.026Z,22.70
2023-02-24T11:50:43.809Z,22.33
2023-02-24T11:51:52.109Z,21.73
2023-02-24T11:53:03.251Z,22.00
2023-02-24T11:54:15.200Z,19.50
2023-02-24T11:55:25.742Z,20.27
2023-02-24T11:56:33.136Z,20.13
2023-02-24T11:57:41.651Z,19.73
2023-02-24T11:58:59.785Z,22.13
2023-02-24T12:00:13.052Z,21.53
2023-02-24T12:01:24.798Z,21.10
2023-02-24T12:02:50.803Z,21.67
2023-02-24T12:04:02.654Z,20.70
2023-02-24T12:05:15.499Z,21.07
2023-02-24T12:06:43.530Z,20.63
2023-02-24T12:07:50.391Z,21.77
2023-02-24T12:08:53.925Z,21.80
2023-02-24T12:10:14.215Z,21.23
2023-02-24T12:11:21.795Z,21.67
2023-02-24T12:12:26.525Z,21.30
2023-02-24T12:13:32.272Z,22.40
2023-02-24T12:14:39.850Z,21.60
2023-02-24T12:15:52.747Z,21.20
2023-02-24T12:17:01.691Z,20.67
2023-02-24T12:18:13.591Z,20.10
2023-02-24T12:19:35.056Z,21.03
2023-02-24T12:20:44.210Z,22.20
2023-02-24T12:21:54.460Z,22.43
2023-02-24T12:22:57.766Z,20.40
2023-02-24T12:24:04.227Z,21.20
2023-02-24T12:25:06.020Z,20.40
2023-02-24T12:26:21.512Z,20.87
2023-02-24T12:27:46.382Z,21.03
2023-02-24T12:29:16.169Z,20.87
2023-02-24T12:30:41.361Z,19.93
2023-02-24T12:31:54.536Z,20.93
2023-02-24T12:34:30.651Z,19.67
2023-02-24T12:35:49.612Z,21.40
2023-02-24T12:37:09.853Z,19.50
2023-02-24T12:38:17.230Z,19.77
2023-02-24T12:39:24.005Z,19.93
2023-02-24T12:40:28.531Z,19.77
2023-02-24T12:41:45.068Z,19.30
2023-02-24T12:42:53.424Z,18.37
2023-02-24T12:44:16.151Z,17.37
2023-02-24T12:45:38.220Z,16.80
2023-02-24T12:46:43.407Z,16.70
2023-02-24T12:48:03.724Z,17.37
2023-02-24T12:49:12.113Z,18.60
2023-02-24T12:50:23.975Z,18.20
2023-02-24T12:51:40.669Z,17.80
2023-02-24T12:52:53.817Z,17.33
2023-02-24T12:54:04.406Z,17.27
2023-02-24T12:55:25.292Z,16.27
2023-02-24T12:56:31.350Z,16.27
2023-02-24T12:57:51.542Z,17.50
2023-02-24T12:58:56.340Z,17.33
2023-02-24T13:00:01.439Z,15.87
2023-02-24T13:01:10.864Z,16.73
2023-02-24T13:02:18.569Z,15.83
2023-02-24T13:03:31.931Z,16.17
2023-02-24T13:04:53.030Z,16.37
2023-02-24T13:05:54.405Z,15.90
2023-02-24T13:07:00.860Z,16.60
2023-02-24T13:08:12.649Z,17.00
2023-02-24T13:09:21.371Z,16.43
2023-02-24T13:10:34.971Z,16.30
2023-02-24T13:11:42.511Z,15.63
2023-02-24T13:13:02.668Z,16.00
2023-02-24T13:14:19.487Z,16.53
2023-02-24T13:15:25.366Z,17.20
2023-02-24T13:16:28.010Z,17.27
2023-02-24T13:17:29.564Z,17.97
2023-02-24T13:18:32.750Z,18.03
2023-02-24T13:19:34.125Z,17.47
2023-02-24T13:20:36.966Z,17.77
2023-02-24T13:21:39.900Z,17.20
2023-02-24T13:22:42.195Z,18.80
2023-02-24T13:23:52.349Z,17.97
2023-02-24T13:24:59.881Z,17.27
2023-02-24T13:26:01.325Z,17.73
2023-02-24T13:27:22.847Z,18.03
2023-02-24T13:28:25.698Z,18.33
2023-02-24T13:29:27.062Z,18.10
2023-02-24T13:30:31.986Z,18.23
2023-02-24T13:31:50.100Z,18.60
2023-02-24T13:33:02.631Z,17.83
2023-02-24T13:34:12.463Z,17.80
2023-02-24T13:35:13.865Z,18.27
2023-02-24T13:36:24.700Z,17.47
2023-02-24T13:37:30.066Z,18.77
2023-02-24T13:38:31.571Z,18.60
2023-02-24T13:39:35.108Z,17.67
2023-02-24T13:40:36.566Z,18.80
2023-02-24T13:41:40.501Z,17.63
2023-02-24T13:42:43.308Z,16.87
2023-02-24T13:43:52.986Z,16.50
2023-02-24T13:45:01.987Z,16.63
2023-02-24T13:46:14.759Z,15.30
2023-02-24T13:47:35.093Z,15.90
2023-02-24T13:48:36.479Z,16.27
2023-02-24T13:49:37.832Z,15.07
2023-02-24T13:50:59.936Z,16.23
2023-02-24T13:52:15.625Z,15.10
2023-02-24T13:53:26.582Z,14.37
2023-02-24T13:54:43.592Z,15.30
2023-02-24T13:55:53.021Z,14.63
2023-02-24T13:57:17.705Z,14.67
2023-02-24T13:58:40.793Z,13.60
2023-02-24T14:00:10.171Z,14.43
2023-02-24T14:01:14.271Z,13.27
2023-02-24T14:02:17.563Z,13.20
2023-02-24T14:03:20.406Z,14.13
2023-02-24T14:04:31.830Z,13.70
2023-02-24T14:05:34.600Z,13.87
2023-02-24T14:06:36.850Z,13.67
2023-02-24T14:07:39.018Z,13.17
2023-02-24T14:08:45.774Z,13.30
2023-02-24T14:09:48.664Z,13.73
2023-02-24T14:10:55.356Z,12.90
2023-02-24T14:12:02.654Z,13.10
2023-02-24T14:13:13.836Z,12.43
2023-02-24T14:14:17.984Z,13.37
2023-02-24T14:15:20.367Z,13.00
2023-02-24T14:16:23.506Z,11.60
2023-02-24T14:17:28.324Z,12.00
2023-02-24T14:18:30.055Z,12.43
2023-02-24T14:19:31.405Z,12.60
2023-02-24T14:20:33.877Z,12.83
2023-02-24T14:21:35.275Z,12.33
2023-02-24T14:23:03.839Z,12.03
2023-02-24T14:24:14.314Z,11.70
2023-02-24T14:25:15.939Z,12.17
2023-02-24T14:26:20.372Z,12.23
2023-02-24T14:27:26.400Z,12.27
2023-02-24T14:28:29.831Z,12.20
2023-02-24T14:29:43.275Z,12.43
2023-02-24T14:30:45.289Z,11.57
2023-02-24T14:31:47.988Z,12.23